Time;durP1;ratioP1;P1;durP2;ratioP2;P2;SDS_P1;SDS_P2;PMS_P1;PMS_P2;Temp;Humidity;BMP_temperature;BMP_pressure;BME280_temperature;BME280_humidity;BME280_pressure;Samples;Min_cycle;Max_cycle;Signal;HPM_P1;HPM_P2
2022/07/29 00:00:09;;;;;;;4.00;1.60;;;14.00;78.60;;;;;;4996562;28;20042;-49
2022/07/29 00:02:35;;;;;;;3.03;1.42;;;14.00;78.50;;;;;;4998167;28;20045;-48
2022/07/29 00:05:01;;;;;;;5.32;1.67;;;14.40;81.00;;;;;;4994772;28;20045;-49
2022/07/29 00:07:27;;;;;;;4.13;1.23;;;13.90;83.40;;;;;;4996035;28;20438;-48
2022/07/29 00:09:53;;;;;;;3.35;1.50;;;14.10;82.70;;;;;;4996511;28;20045;-48
2022/07/29 00:12:20;;;;;;;4.78;1.30;;;14.10;82.50;;;;;;4998026;28;20383;-46
2022/07/29 00:14:46;;;;;;;6.25;1.58;;;14.60;83.90;;;;;;4995138;28;20041;-49
2022/07/29 00:17:15;;;;;;;5.07;1.30;;;14.00;85.40;;;;;;4994189;28;20824;-48
2022/07/29 00:19:41;;;;;;;5.68;1.80;;;14.00;87.00;;;;;;4994847;28;20045;-49
2022/07/29 00:22:06;;;;;;;4.18;1.40;;;14.50;87.60;;;;;;4994645;28;20100;-48
2022/07/29 00:24:32;;;;;;;3.45;1.70;;;13.80;87.80;;;;;;4996486;28;20041;-50
2022/07/29 00:26:58;;;;;;;3.78;1.70;;;14.00;89.60;;;;;;4999834;28;20131;-49
2022/07/29 00:29:23;;;;;;;4.32;1.45;;;13.80;90.30;;;;;;4976924;28;21003;-48
2022/07/29 00:31:49;;;;;;;4.70;1.60;;;13.70;90.20;;;;;;4997354;28;20041;-48
2022/07/29 00:37:01;;;;;;;5.78;1.92;;;14.50;91.90;;;;;;5000501;28;20065;-49
2022/07/29 00:39:27;;;;;;;6.75;1.90;;;13.80;92.50;;;;;;4994465;28;20120;-52
2022/07/29 00:41:52;;;;;;;4.70;1.52;;;14.80;92.40;;;;;;4993487;28;20127;-51
2022/07/29 00:44:20;;;;;;;3.83;1.60;;;13.90;92.50;;;;;;5001458;28;20049;-46
2022/07/29 00:46:46;;;;;;;4.47;1.40;;;14.60;93.30;;;;;;4997845;28;20838;-49
2022/07/29 00:49:12;;;;;;;5.88;1.80;;;14.00;93.60;;;;;;4994405;28;20054;-47
2022/07/29 00:51:39;;;;;;;8.18;1.50;;;13.80;93.90;;;;;;4994553;28;20494;-50
2022/07/29 00:54:05;;;;;;;3.20;1.50;;;14.00;95.10;;;;;;4995989;28;20049;-47
2022/07/29 00:56:32;;;;;;;4.88;2.00;;;14.00;95.30;;;;;;4994735;28;20447;-47
2022/07/29 00:58:58;;;;;;;5.35;1.63;;;14.40;97.30;;;;;;4996148;28;20468;-46
2022/07/29 01:01:24;;;;;;;6.25;2.30;;;14.10;96.50;;;;;;4994819;28;20046;-50
2022/07/29 01:03:50;;;;;;;5.30;1.88;;;14.00;96.50;;;;;;4999667;28;20060;-45
2022/07/29 01:06:17;;;;;;;7.05;1.67;;;16.10;96.90;;;;;;4997567;28;20037;-48
2022/07/29 01:08:44;;;;;;;8.05;1.85;;;14.90;97.60;;;;;;4994395;28;20573;-48
2022/07/29 01:11:11;;;;;;;6.07;1.58;;;14.00;97.10;;;;;;5000071;28;20048;-49
2022/07/29 01:13:37;;;;;;;6.63;2.30;;;14.20;97.70;;;;;;4993814;28;20570;-46
2022/07/29 01:16:15;;;;;;;5.35;1.75;;;14.00;97.70;;;;;;4994869;28;20064;-47
2022/07/29 01:18:46;;;;;;;3.40;1.90;;;13.80;96.90;;;;;;5000839;28;20053;-47
2022/07/29 01:21:47;;;;;;;5.00;1.27;;;15.00;98.10;;;;;;4994929;28;20117;-46
2022/07/29 01:24:25;;;;;;;4.03;1.38;;;14.10;97.30;;;;;;4995507;28;20046;-45
2022/07/29 01:27:09;;;;;;;5.70;1.90;;;15.00;98.50;;;;;;4993487;28;20410;-46
2022/07/29 01:29:48;;;;;;;6.60;2.00;;;14.00;98.10;;;;;;4992661;28;20076;-46
2022/07/29 01:32:19;;;;;;;3.63;1.65;;;14.10;99.40;;;;;;4997194;28;20042;-46
2022/07/29 01:35:04;;;;;;;3.05;1.42;;;15.00;99.90;;;;;;4996031;28;20128;-46
2022/07/29 01:37:41;;;;;;;6.05;1.40;;;13.90;99.90;;;;;;4994800;28;20053;-49
2022/07/29 01:40:17;;;;;;;4.60;1.80;;;14.00;99.90;;;;;;4993070;28;20631;-47
2022/07/29 01:42:50;;;;;;;6.07;1.88;;;13.90;99.90;;;;;;4993637;28;20642;-47
2022/07/29 01:45:40;;;;;;;7.68;1.92;;;14.60;99.90;;;;;;4993240;28;20132;-49
2022/07/29 01:48:10;;;;;;;5.53;2.03;;;13.70;99.90;;;;;;4933050;28;20158;-50
2022/07/29 01:50:49;;;;;;;6.65;2.10;;;14.00;99.90;;;;;;4932827;28;20082;-52
2022/07/29 01:53:25;;;;;;;6.40;2.30;;;14.10;99.90;;;;;;4932762;28;20113;-50
2022/07/29 01:55:52;;;;;;;6.07;2.22;;;14.70;99.90;;;;;;4931938;28;20866;-48
2022/07/29 01:58:20;;;;;;;4.05;1.98;;;14.40;99.90;;;;;;4931993;28;20546;-46
2022/07/29 02:00:47;;;;;;;5.38;2.20;;;13.90;99.90;;;;;;4932690;28;20058;-47
2022/07/29 02:03:15;;;;;;;6.43;2.08;;;13.80;99.90;;;;;;4932689;28;20209;-49
2022/07/29 02:05:43;;;;;;;6.78;2.25;;;13.90;99.90;;;;;;4932249;28;20047;-50
2022/07/29 02:08:11;;;;;;;4.70;1.88;;;14.70;99.90;;;;;;4931283;28;20050;-50
2022/07/29 02:10:39;;;;;;;4.45;1.85;;;13.80;99.90;;;;;;4931603;28;20043;-47
2022/07/29 02:13:06;;;;;;;4.70;1.85;;;14.80;99.90;;;;;;4932438;28;20051;-48
2022/07/29 02:15:34;;;;;;;4.65;2.08;;;13.90;99.90;;;;;;4932939;28;20129;-49
2022/07/29 02:18:10;;;;;;;6.20;2.47;;;14.00;99.90;;;;;;4934298;28;20144;-49
2022/07/29 02:20:37;;;;;;;4.55;1.80;;;14.00;99.70;;;;;;4934584;28;20251;-49
2022/07/29 02:23:04;;;;;;;5.97;2.50;;;14.90;99.70;;;;;;4933173;28;20048;-51
2022/07/29 02:25:31;;;;;;;5.40;2.25;;;15.30;99.60;;;;;;4971023;28;20049;-46
2022/07/29 02:27:58;;;;;;;5.03;2.10;;;14.10;99.20;;;;;;4995446;28;20541;-49
2022/07/29 02:30:27;;;;;;;3.95;2.03;;;15.00;99.00;;;;;;4993502;28;20034;-46
2022/07/29 02:32:54;;;;;;;5.30;2.10;;;14.10;97.70;;;;;;4992205;28;20041;-46
2022/07/29 02:35:21;;;;;;;7.35;1.83;;;14.30;96.90;;;;;;4985182;28;20103;-48
2022/07/29 02:40:36;;;;;;;8.80;1.70;;;14.10;96.90;;;;;;4992413;28;20076;-46
2022/07/29 02:43:05;;;;;;;4.93;1.80;;;14.80;96.50;;;;;;4992438;28;20220;-46
2022/07/29 02:45:32;;;;;;;5.25;1.98;;;14.20;96.40;;;;;;4993810;28;20049;-48
2022/07/29 02:48:02;;;;;;;3.67;1.50;;;15.30;96.50;;;;;;4995092;28;20461;-47
2022/07/29 02:50:33;;;;;;;5.68;1.77;;;14.10;96.00;;;;;;4995589;28;20049;-46
2022/07/29 02:53:08;;;;;;;4.45;1.60;;;14.20;95.60;;;;;;4994151;28;20104;-46
2022/07/29 02:55:39;;;;;;;4.97;1.67;;;14.30;94.90;;;;;;4992974;28;20037;-47
2022/07/29 02:58:08;;;;;;;6.23;1.73;;;15.40;96.00;;;;;;4993254;28;20046;-47
2022/07/29 03:00:37;;;;;;;5.55;1.30;;;14.10;95.70;;;;;;4992627;28;20100;-46
2022/07/29 03:03:07;;;;;;;7.65;2.70;;;14.20;96.10;;;;;;4994039;28;20308;-50
2022/07/29 03:05:34;;;;;;;5.43;1.88;;;14.20;96.30;;;;;;4992407;28;20034;-48
2022/07/29 03:08:03;;;;;;;4.60;1.52;;;14.30;95.80;;;;;;4996406;28;20041;-45
2022/07/29 03:10:30;;;;;;;6.68;1.80;;;14.80;95.60;;;;;;5000538;28;20532;-49
2022/07/29 03:12:57;;;;;;;4.40;1.80;;;14.20;95.10;;;;;;4998634;28;20070;-47
2022/07/29 03:15:23;;;;;;;4.25;1.80;;;14.30;95.40;;;;;;4996453;28;20034;-46
2022/07/29 03:17:50;;;;;;;4.90;2.15;;;14.30;94.70;;;;;;4996559;28;20038;-49
2022/07/29 03:20:18;;;;;;;5.22;1.83;;;15.10;94.50;;;;;;5002128;28;20053;-47
2022/07/29 03:22:46;;;;;;;5.55;1.77;;;14.10;94.90;;;;;;5000862;28;21417;-46
2022/07/29 03:25:18;;;;;;;6.18;1.83;;;14.10;95.20;;;;;;4998651;28;20099;-49
2022/07/29 03:27:46;;;;;;;4.25;1.63;;;14.20;95.50;;;;;;4995175;28;21707;-50
2022/07/29 03:30:13;;;;;;;3.75;1.83;;;14.90;94.50;;;;;;4997845;28;20045;-49
2022/07/29 03:32:39;;;;;;;7.65;1.80;;;14.10;94.30;;;;;;4997942;28;20050;-45
2022/07/29 03:35:06;;;;;;;6.10;1.90;;;14.10;94.40;;;;;;4998287;28;20116;-46
2022/07/29 03:37:33;;;;;;;3.92;1.75;;;14.10;94.30;;;;;;4998308;28;20065;-49
2022/07/29 03:40:01;;;;;;;4.80;1.73;;;15.80;94.80;;;;;;4997642;28;20130;-48
2022/07/29 03:42:32;;;;;;;4.47;1.92;;;14.50;94.20;;;;;;4997444;28;20044;-49
2022/07/29 03:45:02;;;;;;;6.47;1.75;;;14.20;93.90;;;;;;4997914;28;20501;-47
2022/07/29 03:47:29;;;;;;;5.45;1.60;;;14.20;93.30;;;;;;4998379;28;20045;-48
2022/07/29 03:50:01;;;;;;;5.35;1.83;;;14.20;92.30;;;;;;4996913;28;20046;-46
2022/07/29 03:52:27;;;;;;;3.83;1.60;;;14.30;90.50;;;;;;4997432;28;20570;-47
2022/07/29 03:54:53;;;;;;;3.55;1.60;;;14.20;90.60;;;;;;4995138;28;20083;-46
2022/07/29 03:57:24;;;;;;;3.58;1.30;;;16.20;90.10;;;;;;4997678;28;20029;-48
2022/07/29 03:59:52;;;;;;;4.80;1.50;;;15.40;90.50;;;;;;4997701;28;20084;-46
2022/07/29 04:02:18;;;;;;;6.82;1.70;;;14.20;90.50;;;;;;4994532;28;20072;-47
2022/07/29 04:04:47;;;;;;;3.17;1.55;;;14.20;90.10;;;;;;5000797;28;20037;-46
2022/07/29 04:07:15;;;;;;;6.80;1.50;;;16.00;91.10;;;;;;4995443;28;20120;-48
2022/07/29 04:09:41;;;;;;;5.07;1.88;;;15.60;90.20;;;;;;4999287;28;20058;-46
2022/07/29 04:12:07;;;;;;;13.48;3.28;;;16.40;89.10;;;;;;5001525;28;20358;-49
2022/07/29 04:14:35;;;;;;;4.90;1.40;;;14.20;84.60;;;;;;4997628;28;20103;-47
2022/07/29 04:17:02;;;;;;;6.63;1.60;;;14.30;83.20;;;;;;4995202;28;20084;-48
2022/07/29 04:19:28;;;;;;;5.13;1.42;;;14.40;83.20;;;;;;4994442;28;20057;-47
2022/07/29 04:21:54;;;;;;;5.93;1.70;;;14.20;82.10;;;;;;4996800;28;20050;-46
2022/07/29 04:24:19;;;;;;;6.63;1.73;;;14.40;81.70;;;;;;4994350;28;20072;-47
2022/07/29 04:26:46;;;;;;;4.20;1.67;;;14.30;81.20;;;;;;4976984;28;20112;-49
2022/07/29 04:29:13;;;;;;;8.25;1.60;;;15.40;81.00;;;;;;4993817;28;20049;-46
2022/07/29 04:31:40;;;;;;;5.57;1.33;;;14.40;81.10;;;;;;4978919;28;20042;-47
2022/07/29 04:34:05;;;;;;;8.40;1.92;;;14.30;80.50;;;;;;4994605;28;20049;-46
2022/07/29 04:36:33;;;;;;;3.38;1.38;;;16.10;82.10;;;;;;4996072;28;20034;-46
2022/07/29 04:39:01;;;;;;;8.40;1.90;;;15.20;81.60;;;;;;4975618;28;20612;-48
2022/07/29 04:41:27;;;;;;;5.65;1.70;;;14.30;81.90;;;;;;4996930;28;20049;-51
2022/07/29 04:43:53;;;;;;;4.70;1.77;;;14.40;82.60;;;;;;4996024;28;20526;-48
2022/07/29 04:46:19;;;;;;;6.53;1.60;;;15.10;82.50;;;;;;4997002;28;20049;-48
2022/07/29 04:48:48;;;;;;;5.63;1.80;;;16.00;83.90;;;;;;4995376;28;20045;-47
2022/07/29 04:51:14;;;;;;;8.65;1.77;;;14.30;83.70;;;;;;4994588;28;20050;-45
2022/07/29 04:53:40;;;;;;;9.60;2.17;;;15.10;84.10;;;;;;4996868;28;20121;-47
2022/07/29 04:56:05;;;;;;;7.63;1.98;;;15.40;84.80;;;;;;4997946;28;20040;-47
2022/07/29 04:58:33;;;;;;;8.18;1.75;;;14.50;82.90;;;;;;4999062;28;20080;-50
2022/07/29 05:01:01;;;;;;;6.45;1.70;;;14.70;84.70;;;;;;4982056;28;20034;-47
2022/07/29 05:03:26;;;;;;;5.45;1.70;;;14.30;83.30;;;;;;4994654;28;20053;-48
2022/07/29 05:05:52;;;;;;;4.78;1.42;;;16.30;83.50;;;;;;4979366;28;20041;-48
2022/07/29 05:08:18;;;;;;;4.18;1.48;;;14.40;81.90;;;;;;4997645;28;20045;-48
2022/07/29 05:10:44;;;;;;;7.13;1.63;;;15.00;81.20;;;;;;4998485;28;20053;-48
2022/07/29 05:13:09;;;;;;;11.65;2.85;;;15.60;81.00;;;;;;4995882;28;20046;-46
2022/07/29 05:15:36;;;;;;;4.63;1.95;;;14.50;79.90;;;;;;4997761;28;20425;-48
2022/07/29 05:18:02;;;;;;;4.65;1.60;;;14.60;80.00;;;;;;4993533;28;20042;-47
2022/07/29 05:20:29;;;;;;;7.03;1.80;;;14.60;79.60;;;;;;4976020;28;20046;-49
2022/07/29 05:23:00;;;;;;;5.40;1.33;;;16.50;79.50;;;;;;4993182;28;20043;-47
2022/07/29 05:25:27;;;;;;;8.50;2.10;;;14.60;79.00;;;;;;4996989;28;20183;-46
2022/07/29 05:27:54;;;;;;;8.07;1.80;;;14.60;77.80;;;;;;4998476;28;20053;-46
2022/07/29 05:30:21;;;;;;;5.35;1.55;;;14.80;78.20;;;;;;4997341;28;20045;-46
2022/07/29 05:32:47;;;;;;;6.90;2.10;;;14.60;78.10;;;;;;4998175;28;20337;-49
2022/07/29 05:35:14;;;;;;;4.53;1.50;;;15.00;77.90;;;;;;5000816;28;20053;-47
2022/07/29 05:37:39;;;;;;;4.00;1.40;;;16.80;77.70;;;;;;4975862;28;20176;-51
2022/07/29 05:40:06;;;;;;;5.97;1.60;;;14.80;74.70;;;;;;4992301;28;20097;-48
2022/07/29 05:42:32;;;;;;;5.93;1.42;;;14.80;74.00;;;;;;4994233;28;20044;-46
2022/07/29 05:45:00;;;;;;;5.85;1.65;;;15.60;73.30;;;;;;4994361;28;20038;-46
2022/07/29 05:47:26;;;;;;;7.20;1.60;;;15.00;70.90;;;;;;4993832;28;20037;-48
2022/07/29 05:49:53;;;;;;;3.95;1.50;;;14.90;71.10;;;;;;4992137;28;20643;-47
2022/07/29 05:52:19;;;;;;;5.93;1.90;;;15.20;70.60;;;;;;4993875;28;20180;-49
2022/07/29 05:54:45;;;;;;;5.30;1.40;;;14.90;68.70;;;;;;4993377;28;20046;-46
2022/07/29 05:57:19;;;;;;;4.30;1.60;;;15.20;65.00;;;;;;4995813;28;20041;-47
2022/07/29 05:59:45;;;;;;;5.15;1.50;;;15.10;64.10;;;;;;4975135;28;20056;-48
2022/07/29 06:02:11;;;;;;;5.05;1.63;;;15.20;64.20;;;;;;4993534;28;20126;-50
2022/07/29 06:04:37;;;;;;;6.35;1.52;;;17.00;64.20;;;;;;4997451;28;20489;-49
2022/07/29 06:07:02;;;;;;;7.63;1.60;;;16.30;52.60;;;;;;4994911;28;20029;-51
2022/07/29 06:09:28;;;;;;;3.90;1.50;;;15.50;49.00;;;;;;4992537;28;20052;-47
2022/07/29 06:11:54;;;;;;;5.15;1.45;;;15.60;46.50;;;;;;4990832;28;20365;-46
2022/07/29 06:14:20;;;;;;;5.65;1.60;;;15.60;34.20;;;;;;4995082;28;20044;-46
2022/07/29 06:16:47;;;;;;;8.43;1.90;;;15.90;99.90;;;;;;4995796;28;20056;-46
2022/07/29 06:19:13;;;;;;;4.63;1.80;;;17.20;99.90;;;;;;4993712;28;20041;-47
2022/07/29 06:21:45;;;;;;;8.00;1.83;;;16.80;99.90;;;;;;4993174;28;20044;-52
2022/07/29 06:24:14;;;;;;;10.45;1.70;;;16.30;99.90;;;;;;4993127;28;20046;-48
2022/07/29 06:26:40;;;;;;;7.25;1.42;;;16.20;99.90;;;;;;4993219;28;20502;-46
2022/07/29 06:29:07;;;;;;;4.18;1.60;;;16.80;99.90;;;;;;4992501;28;20046;-46
2022/07/29 06:31:34;;;;;;;6.25;1.60;;;16.20;99.90;;;;;;4998933;28;20100;-47
2022/07/29 06:34:00;;;;;;;4.97;1.50;;;16.10;99.90;;;;;;4994660;28;20073;-50
2022/07/29 06:36:26;;;;;;;4.38;1.73;;;16.40;99.90;;;;;;4994246;28;20049;-47
2022/07/29 06:38:55;;;;;;;3.47;1.45;;;16.30;99.90;;;;;;4993324;28;20038;-46
2022/07/29 06:41:22;;;;;;;5.13;1.42;;;16.50;99.90;;;;;;4996309;28;20030;-48
2022/07/29 06:43:48;;;;;;;7.15;1.65;;;16.30;99.90;;;;;;4997407;28;20049;-47
2022/07/29 06:46:17;;;;;;;6.82;1.33;;;17.50;99.90;;;;;;4998646;28;20038;-51
2022/07/29 06:48:43;;;;;;;4.50;1.88;;;17.30;99.90;;;;;;4996822;28;20611;-55
2022/07/29 06:51:09;;;;;;;7.05;1.65;;;16.70;99.90;;;;;;4996239;28;20426;-54
2022/07/29 06:53:37;;;;;;;7.60;1.83;;;17.00;99.90;;;;;;4998890;28;20064;-55
2022/07/29 06:56:05;;;;;;;4.60;1.60;;;16.60;99.90;;;;;;5001161;28;20049;-53
2022/07/29 06:58:31;;;;;;;5.43;1.70;;;16.80;99.90;;;;;;4999139;28;20049;-55
2022/07/29 07:01:00;;;;;;;5.72;1.38;;;16.90;99.90;;;;;;4999187;28;20138;-54
2022/07/29 07:03:26;;;;;;;8.82;1.75;;;16.90;99.90;;;;;;4998286;28;20140;-55
2022/07/29 07:05:53;;;;;;;4.82;1.45;;;19.00;99.90;;;;;;5000919;28;20085;-56
2022/07/29 07:08:22;;;;;;;6.13;1.70;;;17.60;99.90;;;;;;4982204;28;20601;-55
2022/07/29 07:10:48;;;;;;;9.60;1.60;;;18.20;99.90;;;;;;5001065;28;20038;-55
2022/07/29 07:13:14;;;;;;;5.68;1.42;;;17.70;99.90;;;;;;4995527;28;20042;-55
2022/07/29 07:15:41;;;;;;;14.45;2.42;;;18.50;99.90;;;;;;4996456;28;20502;-55
2022/07/29 07:18:07;;;;;;;5.88;1.70;;;17.70;99.90;;;;;;4996503;28;20100;-55
2022/07/29 07:20:33;;;;;;;6.45;1.55;;;17.80;99.90;;;;;;5001121;28;20030;-54
2022/07/29 07:22:59;;;;;;;5.93;2.13;;;20.60;99.90;;;;;;4997923;28;20038;-56
2022/07/29 07:25:25;;;;;;;5.93;1.48;;;18.90;99.90;;;;;;4996445;28;20052;-56
2022/07/29 07:27:51;;;;;;;6.53;1.60;;;19.40;99.90;;;;;;4996874;28;20384;-54
2022/07/29 07:30:18;;;;;;;6.72;1.60;;;20.30;99.90;;;;;;4996804;28;20384;-55
2022/07/29 07:32:44;;;;;;;10.05;1.80;;;20.50;99.90;;;;;;4997921;28;20565;-57
2022/07/29 07:35:10;;;;;;;6.18;1.70;;;20.30;99.90;;;;;;4995481;28;20049;-55
2022/07/29 07:37:36;;;;;;;6.60;2.15;;;20.10;99.90;;;;;;4997081;28;20050;-56
2022/07/29 07:40:03;;;;;;;5.15;1.30;;;18.40;99.90;;;;;;4996355;28;20046;-55
2022/07/29 07:42:29;;;;;;;5.30;1.50;;;20.20;99.90;;;;;;4998366;28;20042;-57
2022/07/29 07:44:55;;;;;;;9.57;2.85;;;20.50;99.90;;;;;;4996044;28;20095;-57
2022/07/29 07:47:21;;;;;;;5.53;1.58;;;20.70;99.90;;;;;;4998925;28;20083;-56
2022/07/29 07:49:47;;;;;;;5.80;1.58;;;21.00;99.90;;;;;;4996863;28;20056;-55
2022/07/29 07:52:18;;;;;;;6.28;1.48;;;20.90;99.90;;;;;;4995429;28;20053;-55
2022/07/29 07:54:44;;;;;;;;;;;20.20;99.90;;;;;;4995347;28;20549;-55
2022/07/29 07:57:11;;;;;;;6.35;1.88;;;19.80;99.90;;;;;;4995632;28;19926;-55
2022/07/29 07:59:38;;;;;;;6.47;1.63;;;21.50;99.90;;;;;;4997847;28;20520;-56
2022/07/29 08:02:03;;;;;;;7.20;2.05;;;19.10;99.90;;;;;;4997125;28;20042;-54
2022/07/29 08:04:29;;;;;;;4.93;1.40;;;18.80;99.90;;;;;;4996630;28;20132;-54
2022/07/29 08:06:56;;;;;;;5.82;1.55;;;19.10;99.90;;;;;;4998160;28;20107;-55
2022/07/29 08:09:23;;;;;;;5.95;1.80;;;18.40;99.90;;;;;;4995901;28;21296;-55
2022/07/29 08:11:48;;;;;;;5.18;1.40;;;18.30;99.90;;;;;;4996261;28;20116;-55
2022/07/29 08:14:15;;;;;;;10.68;1.80;;;19.20;99.90;;;;;;4995808;28;20056;-53
2022/07/29 08:16:42;;;;;;;6.10;1.55;;;18.00;99.90;;;;;;4995691;28;20570;-53
2022/07/29 08:19:07;;;;;;;5.07;1.63;;;18.10;99.90;;;;;;4977901;28;20672;-54
2022/07/29 08:21:33;;;;;;;7.50;1.55;;;18.00;99.90;;;;;;4996464;28;20052;-55
2022/07/29 08:26:44;;;;;;;6.47;1.67;;;17.90;99.90;;;;;;4996342;28;20080;-51
2022/07/29 08:29:09;;;;;;;6.80;1.67;;;17.80;99.90;;;;;;4997736;28;20057;-52
2022/07/29 08:31:39;;;;;;;5.88;1.90;;;17.80;99.90;;;;;;4996298;28;20129;-51
2022/07/29 08:34:05;;;;;;;5.07;1.73;;;17.60;99.90;;;;;;4993145;28;20132;-55
2022/07/29 08:36:33;;;;;;;11.07;2.22;;;17.70;99.90;;;;;;4997919;28;20133;-55
2022/07/29 08:38:59;;;;;;;5.28;1.75;;;17.60;99.90;;;;;;4997064;28;20045;-56
2022/07/29 08:41:26;;;;;;;7.97;1.70;;;17.80;99.90;;;;;;4994760;28;20037;-55
2022/07/29 08:43:52;;;;;;;6.00;1.40;;;18.90;99.90;;;;;;4993871;28;20046;-56
2022/07/29 08:46:19;;;;;;;5.28;1.67;;;18.10;99.90;;;;;;4996725;28;20065;-54
2022/07/29 08:48:48;;;;;;;4.88;1.67;;;17.50;99.90;;;;;;4994421;28;20037;-55
2022/07/29 08:51:20;;;;;;;6.32;2.20;;;17.50;99.90;;;;;;4994255;28;20052;-56
2022/07/29 08:53:48;;;;;;;7.85;1.55;;;17.80;99.90;;;;;;4994824;28;20450;-55
2022/07/29 08:56:19;;;;;;;6.90;1.80;;;19.00;99.90;;;;;;4996200;28;20034;-55
2022/07/29 08:58:48;;;;;;;9.00;2.80;;;17.80;99.90;;;;;;4993812;28;20038;-55
2022/07/29 09:01:18;;;;;;;6.05;1.90;;;17.90;99.90;;;;;;4993574;28;20065;-55
2022/07/29 09:03:46;;;;;;;6.68;2.35;;;18.00;99.90;;;;;;4996894;28;20049;-55
2022/07/29 09:06:16;;;;;;;6.60;1.77;;;17.90;99.90;;;;;;4994520;28;20037;-55
2022/07/29 09:08:43;;;;;;;5.72;1.95;;;17.90;99.90;;;;;;4996081;28;20057;-55
2022/07/29 09:11:11;;;;;;;8.80;1.90;;;18.10;99.90;;;;;;4976961;28;20565;-54
2022/07/29 09:13:37;;;;;;;6.15;1.83;;;17.90;99.90;;;;;;4995848;28;20120;-56
2022/07/29 09:16:03;;;;;;;4.93;1.98;;;18.10;99.90;;;;;;4994009;28;20136;-55
2022/07/29 09:18:40;;;;;;;9.25;2.25;;;18.20;99.90;;;;;;4994474;28;20533;-54
2022/07/29 09:24:21;;;;;;;6.93;1.67;;;18.40;99.90;;;;;;4994656;28;20573;-55
2022/07/29 09:26:47;;;;;;;6.38;1.55;;;19.30;99.90;;;;;;4932911;28;20170;-55
2022/07/29 09:29:15;;;;;;;5.63;2.00;;;18.70;99.90;;;;;;4933654;28;20043;-55
2022/07/29 09:31:43;;;;;;;5.40;1.83;;;18.70;99.90;;;;;;4933858;28;20059;-56
2022/07/29 09:34:10;;;;;;;4.70;1.70;;;18.70;99.90;;;;;;4933897;28;20151;-55
2022/07/29 09:36:48;;;;;;;8.65;2.55;;;19.90;99.90;;;;;;4933219;28;20040;-55
2022/07/29 09:39:15;;;;;;;5.00;1.80;;;21.10;99.90;;;;;;4933390;28;20043;-55
2022/07/29 09:41:55;;;;;;;6.90;2.30;;;20.60;99.90;;;;;;4933469;28;20047;-55
2022/07/29 09:44:22;;;;;;;7.65;1.77;;;19.00;99.90;;;;;;4916532;28;20086;-55
2022/07/29 09:46:57;;;;;;;3.42;1.75;;;21.20;99.90;;;;;;4917238;28;20055;-56
2022/07/29 09:49:23;;;;;;;7.45;2.15;;;19.10;99.90;;;;;;4933461;28;20051;-55
2022/07/29 09:52:09;;;;;;;7.00;1.98;;;21.10;99.90;;;;;;4933343;28;20054;-55
2022/07/29 09:54:38;;;;;;;6.00;1.92;;;19.00;99.90;;;;;;4932079;28;20053;-55
2022/07/29 09:57:07;;;;;;;8.35;2.03;;;19.10;99.90;;;;;;4931786;28;20233;-57
2022/07/29 09:59:33;;;;;;;6.68;1.83;;;21.00;99.90;;;;;;4932118;28;20050;-56
2022/07/29 10:01:59;;;;;;;8.60;1.80;;;19.00;99.90;;;;;;4934416;28;20123;-56
2022/07/29 10:04:38;;;;;;;4.70;1.90;;;18.90;99.90;;;;;;4993518;28;20053;-56
2022/07/29 10:07:04;;;;;;;4.90;1.88;;;18.90;99.90;;;;;;4994532;28;20096;-56
2022/07/29 10:09:33;;;;;;;5.45;1.98;;;21.10;99.90;;;;;;4993907;28;20050;-55
2022/07/29 10:12:15;;;;;;;6.22;2.00;;;20.70;99.90;;;;;;4995837;28;20042;-57
2022/07/29 10:14:43;;;;;;;5.75;2.10;;;19.50;99.90;;;;;;4992912;28;20504;-55
2022/07/29 10:17:10;;;;;;;4.13;1.73;;;20.60;99.90;;;;;;4993031;28;20143;-56
2022/07/29 10:19:37;;;;;;;4.35;2.05;;;19.40;99.90;;;;;;4996331;28;20549;-56
2022/07/29 10:22:10;;;;;;;9.48;2.05;;;19.90;99.90;;;;;;4997642;28;20135;-56
2022/07/29 10:24:37;;;;;;;9.93;2.17;;;19.40;99.90;;;;;;4999303;28;20073;-56
2022/07/29 10:27:05;;;;;;;6.82;1.90;;;19.60;99.90;;;;;;4999582;28;20132;-56
2022/07/29 10:29:31;;;;;;;6.72;1.95;;;19.80;99.90;;;;;;4997531;28;20383;-54
2022/07/29 10:32:15;;;;;;;8.75;2.20;;;21.50;99.90;;;;;;4996234;28;20616;-55
2022/07/29 10:35:27;;;;;;;6.07;2.10;;;19.50;99.90;;;;;;4997066;28;21225;-57
2022/07/29 10:38:07;;;;;;;10.90;2.10;;;19.50;99.90;;;;;;4937183;28;20043;-55
2022/07/29 10:43:29;;;;;;;21.80;11.32;;;19.50;99.90;;;;;;4936876;28;20046;-56
2022/07/29 10:45:59;;;;;;;27.08;21.90;;;19.80;99.90;;;;;;4939733;28;20043;-55
2022/07/29 10:48:25;;;;;;;9.65;4.28;;;19.60;99.90;;;;;;4937508;28;20134;-55
2022/07/29 10:50:57;;;;;;;10.55;1.95;;;20.50;99.90;;;;;;4936684;28;20043;-56
2022/07/29 10:53:23;;;;;;;7.50;1.77;;;20.00;99.90;;;;;;4937380;28;20088;-57
2022/07/29 10:55:51;;;;;;;10.18;2.47;;;22.50;99.90;;;;;;4935905;28;20062;-57
2022/07/29 10:58:23;;;;;;;7.93;2.28;;;20.60;99.90;;;;;;4937087;28;20047;-58
2022/07/29 11:00:53;;;;;;;6.72;2.25;;;21.00;99.90;;;;;;4936134;28;20840;-56
2022/07/29 11:03:41;;;;;;;6.00;1.83;;;21.50;99.90;;;;;;4935114;28;20039;-56
2022/07/29 11:06:07;;;;;;;6.60;1.83;;;21.80;99.90;;;;;;4919295;28;20073;-56
2022/07/29 11:08:32;;;;;;;7.05;1.92;;;22.30;99.90;;;;;;4937948;28;20051;-56
2022/07/29 11:11:40;;;;;;;10.15;2.47;;;22.10;99.90;;;;;;4937967;28;20435;-55
2022/07/29 11:14:06;;;;;;;10.07;1.80;;;21.90;99.90;;;;;;4909394;28;20059;-55
2022/07/29 11:17:08;;;;;;;8.40;2.42;;;21.40;99.90;;;;;;4936165;28;20070;-56
2022/07/29 11:19:35;;;;;;;;;;;21.40;99.90;;;;;;4935884;28;20051;-56
2022/07/29 11:22:00;;;;;;;7.43;2.40;;;21.70;99.90;;;;;;4935992;28;20403;-56
2022/07/29 11:24:30;;;;;;;6.90;2.10;;;21.10;99.90;;;;;;4935235;28;20051;-57
2022/07/29 11:27:10;;;;;;;8.35;2.40;;;21.20;99.90;;;;;;4936152;28;20043;-55
2022/07/29 11:29:41;;;;;;;7.80;1.88;;;21.10;99.90;;;;;;4935612;28;20569;-55
2022/07/29 11:32:12;;;;;;;7.20;2.20;;;21.10;99.90;;;;;;4936238;28;20114;-57
2022/07/29 11:34:41;;;;;;;6.43;2.10;;;21.20;99.90;;;;;;4935234;28;20055;-55
2022/07/29 11:37:07;;;;;;;5.32;1.90;;;21.10;99.90;;;;;;4934530;28;20059;-57
2022/07/29 11:39:44;;;;;;;4.10;1.83;;;20.80;99.90;;;;;;4935771;28;20047;-56
2022/07/29 11:42:25;;;;;;;9.82;2.55;;;20.50;99.90;;;;;;4919181;28;20075;-55
2022/07/29 11:45:01;;;;;;;9.48;2.00;;;20.40;99.90;;;;;;4935707;28;20051;-57
2022/07/29 11:47:30;;;;;;;9.45;2.38;;;20.60;99.90;;;;;;4934829;28;20074;-56
2022/07/29 11:49:59;;;;;;;6.80;2.17;;;20.50;99.90;;;;;;4936158;28;20177;-56
2022/07/29 11:52:44;;;;;;;10.48;2.20;;;20.30;99.90;;;;;;4995271;28;20560;-55
2022/07/29 11:55:19;;;;;;;8.25;2.40;;;20.30;99.90;;;;;;4996200;28;20076;-54
2022/07/29 11:57:58;;;;;;;6.63;2.08;;;20.60;99.90;;;;;;4978019;28;20045;-56
2022/07/29 12:00:37;;;;;;;10.65;2.55;;;20.60;99.90;;;;;;4995076;28;20573;-56
2022/07/29 12:03:06;;;;;;;8.15;2.15;;;20.50;99.90;;;;;;4978347;28;20305;-56
2022/07/29 12:05:46;;;;;;;5.43;2.00;;;20.60;99.90;;;;;;4996174;28;20481;-56
2022/07/29 12:08:19;;;;;;;10.98;2.47;;;20.70;99.90;;;;;;4994980;28;20398;-57
2022/07/29 12:10:46;;;;;;;5.07;2.20;;;20.60;99.90;;;;;;4977325;28;20048;-56
2022/07/29 12:13:14;;;;;;;8.77;2.30;;;20.80;99.90;;;;;;4994938;28;20395;-58
2022/07/29 12:15:44;;;;;;;5.63;2.28;;;20.60;99.90;;;;;;4995760;28;20070;-58
2022/07/29 12:18:18;;;;;;;7.63;2.15;;;21.00;99.90;;;;;;4995930;28;20488;-57
2022/07/29 12:20:45;;;;;;;6.03;2.05;;;21.20;99.90;;;;;;4997944;28;20104;-57
2022/07/29 12:23:12;;;;;;;9.05;2.30;;;21.20;99.90;;;;;;4977227;28;20046;-57
2022/07/29 12:25:39;;;;;;;9.10;2.50;;;20.10;99.90;;;;;;4995908;28;20079;-56
2022/07/29 12:28:09;;;;;;;6.10;2.10;;;21.40;99.90;;;;;;4994011;28;20147;-56
2022/07/29 12:30:47;;;;;;;6.53;2.10;;;21.50;99.90;;;;;;4995809;28;20041;-54
2022/07/29 12:33:20;;;;;;;6.53;2.40;;;21.80;99.90;;;;;;4996246;28;20052;-56
2022/07/29 12:35:49;;;;;;;10.85;2.45;;;21.80;99.90;;;;;;4995939;28;20062;-57
2022/07/29 12:38:16;;;;;;;8.32;2.00;;;22.60;99.90;;;;;;4994827;28;20127;-56
2022/07/29 12:40:43;;;;;;;7.80;2.30;;;22.70;99.90;;;;;;4994516;28;21018;-57
2022/07/29 12:43:13;;;;;;;10.00;2.58;;;22.60;99.90;;;;;;4993935;28;20426;-57
2022/07/29 12:45:41;;;;;;;10.05;3.38;;;22.50;99.90;;;;;;4978500;28;20049;-56
2022/07/29 12:48:10;;;;;;;10.18;2.60;;;22.30;99.90;;;;;;4994102;28;20042;-58
2022/07/29 12:51:01;;;;;;;11.98;2.85;;;22.60;99.90;;;;;;4994951;28;20038;-54
2022/07/29 12:53:27;;;;;;;7.10;2.42;;;22.50;99.90;;;;;;4996534;28;20048;-55
2022/07/29 12:55:55;;;;;;;8.55;2.15;;;22.80;99.90;;;;;;4994796;28;20041;-57
2022/07/29 12:58:36;;;;;;;4.40;1.73;;;23.00;99.90;;;;;;4994085;28;20029;-56
2022/07/29 13:01:17;;;;;;;6.88;1.70;;;22.90;99.90;;;;;;4994630;28;20034;-57
2022/07/29 13:03:59;;;;;;;5.53;2.00;;;24.40;99.90;;;;;;4976360;28;20048;-57
2022/07/29 13:06:31;;;;;;;8.93;2.00;;;23.30;99.90;;;;;;4993757;28;20042;-57
2022/07/29 13:09:14;;;;;;;8.43;2.10;;;23.00;99.90;;;;;;4994751;28;20148;-57